Terminal Aerodrome Forecast
Issued by NWS

Current Version | Previous Version | Text Only | Print | Product List | Glossary On
Versions: 1 2 3 4 5 6 7 8 9 10 11 12 13
000
FTAK31 PAJN 241100
TAFAPG
TAF
PAPG 241139Z 2412/2512 VRB03KT P6SM SCT015 SCT150
     FM241400 VRB04KT P6SM SCT020 BKN150
     FM242100 06005KT P6SM VCSH SCT040 BKN150
     FM250300 VRB03KT P6SM SCT150
     FM250800 VRB03KT P6SM VCFG SCT010 BKN100
      AMD LTD TO CLD VIS AND WIND 2412/2415=

USA.gov is the U.S. government's official web portal to all federal, state and local government web resources and services.